Terminal Aerodrome Forecast
Issued by NWS Charleston, WV

Current Version | Previous Version | Graphics & Text | Print | Product List | Glossary On
Versions: 1 2 3 4 5 6 7 8 9 10 11 12 13 14 15 16 17 18 19 20 21 22 23 24 25 26 27 28
000
FTUS41 KRLX 180100 AAA
TAFHTS
TAF AMD
KHTS 180153Z 1802/1824 VRB02KT P6SM BKN050
     FM180700 15003KT 4SM SHRA OVC025
     FM180900 VRB03KT 3SM SHRA BR VCTS OVC020CB
     FM181100 15003KT 2SM SHRA BR VCTS SCT006 OVC012CB
     FM181600 VRB03KT 3SM -SHRA BR OVC012
     FM181900 21004KT 4SM HZ BKN018=

USA.gov is the U.S. government's official web portal to all federal, state and local government web resources and services.